createdAt,value
2022-12-08T00:01:12.318Z,9.93
2022-12-08T00:04:14.150Z,9.70
2022-12-08T00:07:34.188Z,9.65
2022-12-08T00:10:51.085Z,9.90
2022-12-08T00:13:52.603Z,9.65
2022-12-08T00:16:54.988Z,9.27
2022-12-08T00:19:56.607Z,9.52
2022-12-08T00:22:58.107Z,9.93
2022-12-08T00:26:06.934Z,9.10
2022-12-08T00:29:13.082Z,10.07
2022-12-08T00:32:17.472Z,9.60
2022-12-08T00:35:19.037Z,9.35
2022-12-08T00:38:20.558Z,9.27
2022-12-08T00:41:43.850Z,10.60
2022-12-08T00:44:46.127Z,9.35
2022-12-08T00:47:47.626Z,8.87
2022-12-08T00:50:49.150Z,9.02
2022-12-08T00:53:50.713Z,8.70
2022-12-08T00:56:52.438Z,9.30
2022-12-08T00:59:53.933Z,8.98
2022-12-08T01:02:55.485Z,9.27
2022-12-08T01:05:57.137Z,8.73
2022-12-08T01:08:58.907Z,9.02
2022-12-08T01:12:00.475Z,9.30
2022-12-08T01:15:02.686Z,9.02
2022-12-08T01:18:04.577Z,9.70
2022-12-08T01:21:07.591Z,9.25
2022-12-08T01:24:20.871Z,9.13
2022-12-08T01:27:22.420Z,9.00
2022-12-08T01:30:23.936Z,9.05
2022-12-08T01:33:25.897Z,9.02
2022-12-08T01:36:29.945Z,9.48
2022-12-08T01:39:31.456Z,8.15
2022-12-08T01:42:34.493Z,9.25
2022-12-08T01:45:36.065Z,8.55
2022-12-08T01:48:37.771Z,9.13
2022-12-08T01:51:47.388Z,9.60
2022-12-08T01:54:53.692Z,9.02
2022-12-08T01:58:05.962Z,8.40
2022-12-08T02:01:08.105Z,9.20
2022-12-08T02:04:10.241Z,9.30
2022-12-08T02:07:13.593Z,8.95
2022-12-08T02:10:19.455Z,9.10
2022-12-08T02:13:22.425Z,8.80
2022-12-08T02:16:37.323Z,8.65
2022-12-08T02:20:22.930Z,9.03
2022-12-08T02:23:37.198Z,9.57
2022-12-08T02:26:53.812Z,9.35
2022-12-08T02:30:16.228Z,8.03
2022-12-08T02:33:26.580Z,8.80
2022-12-08T02:36:58.682Z,9.65
2022-12-08T02:40:14.277Z,9.13
2022-12-08T02:43:26.942Z,9.07
2022-12-08T02:46:33.807Z,8.85
2022-12-08T02:49:35.632Z,9.43
2022-12-08T02:52:48.296Z,7.67
2022-12-08T02:56:16.149Z,8.43
2022-12-08T02:59:48.086Z,9.05
2022-12-08T03:03:15.365Z,8.60
2022-12-08T03:06:29.582Z,8.60
2022-12-08T03:09:36.434Z,9.18
2022-12-08T03:12:43.636Z,8.82
2022-12-08T03:15:49.081Z,8.38
2022-12-08T03:19:24.583Z,9.65
2022-12-08T03:22:27.676Z,9.07
2022-12-08T03:25:33.856Z,8.63
2022-12-08T03:28:35.589Z,8.23
2022-12-08T03:31:41.776Z,8.25
2022-12-08T03:34:47.071Z,8.80
2022-12-08T03:37:48.800Z,9.30
2022-12-08T03:41:10.680Z,9.35
2022-12-08T03:44:12.213Z,8.63
2022-12-08T03:47:13.803Z,9.00
2022-12-08T03:50:15.435Z,8.90
2022-12-08T03:54:21.059Z,9.13
2022-12-08T03:57:22.657Z,8.83
2022-12-08T04:00:24.199Z,8.88
2022-12-08T04:03:25.915Z,8.65
2022-12-08T04:06:27.483Z,9.13
2022-12-08T04:09:29.055Z,9.43
2022-12-08T04:12:31.289Z,8.88
2022-12-08T04:15:32.855Z,9.07
2022-12-08T04:18:35.480Z,8.73
2022-12-08T04:21:37.007Z,9.15
2022-12-08T04:24:38.521Z,8.88
2022-12-08T04:27:40.051Z,8.77
2022-12-08T04:30:41.711Z,8.73
2022-12-08T04:33:43.285Z,8.98
2022-12-08T04:36:44.810Z,9.20
2022-12-08T04:39:46.295Z,8.68
2022-12-08T04:42:48.061Z,8.63
2022-12-08T04:45:49.663Z,9.30
2022-12-08T04:48:51.176Z,8.70
2022-12-08T04:51:52.692Z,8.98
2022-12-08T04:54:54.223Z,9.52
2022-12-08T04:57:56.116Z,9.83
2022-12-08T05:00:57.708Z,9.50
2022-12-08T05:03:59.279Z,9.32
2022-12-08T05:07:00.862Z,9.97
2022-12-08T05:10:03.205Z,8.90
2022-12-08T05:13:05.202Z,9.80
2022-12-08T05:16:13.416Z,9.50
2022-12-08T05:19:15.804Z,9.00
2022-12-08T05:22:17.396Z,10.10
2022-12-08T05:25:18.962Z,9.38
2022-12-08T05:28:40.760Z,8.47
2022-12-08T05:31:42.156Z,8.80
2022-12-08T05:34:43.684Z,8.70
2022-12-08T05:37:45.196Z,9.07
2022-12-08T05:40:46.785Z,9.52
2022-12-08T05:43:48.950Z,9.27
2022-12-08T05:46:50.629Z,9.30
2022-12-08T05:49:52.186Z,9.25
2022-12-08T05:52:53.764Z,8.77
2022-12-08T05:55:55.432Z,9.10
2022-12-08T05:58:57.015Z,9.17
2022-12-08T06:01:58.774Z,8.73
2022-12-08T06:05:00.400Z,9.27
2022-12-08T06:08:02.048Z,8.90
2022-12-08T06:11:03.672Z,9.40
2022-12-08T06:14:05.396Z,8.98
2022-12-08T06:17:07.282Z,9.77
2022-12-08T06:20:09.528Z,8.73
2022-12-08T06:23:11.064Z,9.10
2022-12-08T06:26:15.042Z,8.88
2022-12-08T06:29:16.591Z,8.60
2022-12-08T06:32:20.795Z,8.65
2022-12-08T06:35:25.996Z,8.77
2022-12-08T06:38:28.110Z,8.90
2022-12-08T06:41:29.726Z,8.88
2022-12-08T06:44:31.239Z,8.73
2022-12-08T06:47:32.765Z,9.70
2022-12-08T06:50:35.027Z,10.25
2022-12-08T06:53:36.951Z,11.25
2022-12-08T06:56:38.497Z,11.00
2022-12-08T06:59:40.054Z,10.87
2022-12-08T07:02:42.281Z,11.20
2022-12-08T07:05:43.860Z,10.50
2022-12-08T07:08:45.409Z,10.40
2022-12-08T07:11:46.947Z,9.65
2022-12-08T07:14:48.448Z,9.30
2022-12-08T07:17:53.567Z,9.82
2022-12-08T07:21:03.509Z,9.93
2022-12-08T07:24:05.473Z,10.18
2022-12-08T07:27:07.102Z,10.45
2022-12-08T07:30:09.023Z,10.20
2022-12-08T07:33:10.551Z,11.35
2022-12-08T07:36:12.621Z,11.65
2022-12-08T07:39:14.143Z,12.13
2022-12-08T07:42:15.798Z,11.30
2022-12-08T07:45:21.288Z,11.32
2022-12-08T07:48:22.812Z,11.73
2022-12-08T07:51:25.195Z,11.93
2022-12-08T07:54:27.713Z,11.32
2022-12-08T07:57:29.264Z,11.52
2022-12-08T08:00:30.877Z,11.17
2022-12-08T08:03:33.182Z,11.43
2022-12-08T08:06:36.296Z,11.23
2022-12-08T08:09:38.017Z,11.70
2022-12-08T08:12:39.656Z,11.73
2022-12-08T08:15:41.372Z,11.63
2022-12-08T08:18:43.570Z,11.65
2022-12-08T08:21:46.342Z,11.15
2022-12-08T08:24:48.252Z,12.30
2022-12-08T08:27:50.303Z,11.13
2022-12-08T08:30:52.054Z,10.43
2022-12-08T08:33:54.013Z,11.73
2022-12-08T08:36:55.598Z,10.98
2022-12-08T08:39:57.174Z,11.53
2022-12-08T08:43:01.458Z,11.63
2022-12-08T08:46:04.590Z,11.43
2022-12-08T08:49:06.165Z,11.50
2022-12-08T08:52:07.944Z,10.85
2022-12-08T08:55:09.857Z,10.68
2022-12-08T08:58:11.459Z,10.95
2022-12-08T09:01:21.370Z,10.57
2022-12-08T09:04:23.717Z,10.73
2022-12-08T09:07:25.289Z,11.45
2022-12-08T09:10:27.340Z,11.07
2022-12-08T09:13:28.895Z,11.95
2022-12-08T09:16:30.538Z,12.55
2022-12-08T09:19:32.659Z,14.50
2022-12-08T09:22:34.482Z,13.25
2022-12-08T09:25:36.012Z,12.50
2022-12-08T09:28:38.063Z,11.98
2022-12-08T09:31:39.993Z,11.40
2022-12-08T09:34:41.653Z,11.45
2022-12-08T09:37:43.180Z,11.05
2022-12-08T09:40:50.943Z,11.13
2022-12-08T09:44:18.880Z,11.13
2022-12-08T09:47:29.391Z,10.57
2022-12-08T09:50:55.776Z,11.05
2022-12-08T09:54:07.832Z,11.25
2022-12-08T09:57:17.488Z,11.82
2022-12-08T10:00:19.162Z,11.93
2022-12-08T10:03:24.314Z,11.50
2022-12-08T10:06:41.303Z,12.38
2022-12-08T10:09:49.960Z,11.73
2022-12-08T10:13:14.168Z,12.37
2022-12-08T10:16:29.312Z,10.98
2022-12-08T10:19:34.194Z,12.02
2022-12-08T10:22:39.947Z,12.65
2022-12-08T10:25:48.741Z,12.70
2022-12-08T10:28:50.684Z,12.80
2022-12-08T10:31:52.323Z,13.00
2022-12-08T10:35:02.007Z,12.87
2022-12-08T10:38:06.355Z,12.90
2022-12-08T10:41:11.043Z,13.07
2022-12-08T10:44:12.647Z,13.37
2022-12-08T10:47:14.526Z,11.88
2022-12-08T10:50:28.526Z,12.80
2022-12-08T10:53:32.826Z,11.95
2022-12-08T10:56:34.558Z,12.98
2022-12-08T10:59:36.260Z,12.82
2022-12-08T11:02:51.670Z,13.43
2022-12-08T11:05:57.088Z,12.10
2022-12-08T11:09:01.772Z,11.77
2022-12-08T11:12:17.661Z,11.75
2022-12-08T11:15:19.495Z,10.67
2022-12-08T11:18:28.585Z,10.75
2022-12-08T11:21:36.774Z,11.02
2022-12-08T11:24:38.289Z,10.75
2022-12-08T11:27:47.178Z,11.07
2022-12-08T11:30:57.618Z,11.07
2022-12-08T11:33:59.433Z,10.52
2022-12-08T11:37:03.760Z,11.10
2022-12-08T11:40:14.445Z,10.35
2022-12-08T11:43:17.821Z,10.65
2022-12-08T11:46:24.933Z,11.43
2022-12-08T11:49:39.436Z,11.15
2022-12-08T11:52:47.448Z,10.13
2022-12-08T11:55:59.082Z,9.63
2022-12-08T11:59:15.725Z,9.43
2022-12-08T12:02:24.040Z,10.27
2022-12-08T12:06:09.300Z,10.77
2022-12-08T12:09:18.785Z,8.47
2022-12-08T12:12:39.290Z,9.10
2022-12-08T12:15:53.347Z,9.30
2022-12-08T12:19:01.424Z,9.07
2022-12-08T12:22:20.132Z,7.75
2022-12-08T12:25:24.724Z,8.13
2022-12-08T12:28:30.886Z,8.15
2022-12-08T12:31:38.356Z,7.75
2022-12-08T12:34:54.538Z,7.75
2022-12-08T12:38:00.042Z,9.05
2022-12-08T12:41:04.179Z,8.83
2022-12-08T12:44:13.209Z,9.57
2022-12-08T12:47:48.559Z,8.93
2022-12-08T12:50:55.061Z,9.43
2022-12-08T12:54:23.407Z,9.10
2022-12-08T12:57:40.256Z,8.25
2022-12-08T13:00:41.947Z,8.65
2022-12-08T13:03:47.277Z,9.48
2022-12-08T13:06:50.444Z,9.00
2022-12-08T13:10:15.339Z,10.77
2022-12-08T13:13:18.937Z,9.33
2022-12-08T13:16:24.281Z,9.52
2022-12-08T13:19:26.353Z,9.70
2022-12-08T13:22:54.207Z,9.43
2022-12-08T13:26:23.532Z,8.93
2022-12-08T13:29:26.278Z,8.77
2022-12-08T13:33:16.701Z,8.68
2022-12-08T13:36:25.807Z,9.55
2022-12-08T13:39:44.775Z,8.70
2022-12-08T13:43:05.848Z,9.82
2022-12-08T13:46:57.998Z,8.80
2022-12-08T13:57:02.716Z,8.50
2022-12-08T13:59:51.648Z,8.95
2022-12-08T14:02:58.054Z,8.70
2022-12-08T14:06:12.262Z,8.68
2022-12-08T14:09:19.274Z,8.60
2022-12-08T14:12:27.741Z,8.30
2022-12-08T14:15:37.224Z,8.98
2022-12-08T14:18:39.564Z,9.03
2022-12-08T14:21:41.121Z,8.68
2022-12-08T14:24:51.573Z,8.77
2022-12-08T14:27:59.974Z,8.60
2022-12-08T14:31:03.652Z,9.25
2022-12-08T14:34:05.236Z,9.50
2022-12-08T14:37:12.617Z,9.70
2022-12-08T14:40:34.172Z,9.73
2022-12-08T14:43:36.406Z,11.45
2022-12-08T14:46:38.357Z,12.32
2022-12-08T14:49:40.374Z,11.10
2022-12-08T14:52:45.376Z,11.77
2022-12-08T14:55:48.706Z,9.50
2022-12-08T14:59:03.289Z,9.63
2022-12-08T15:02:19.431Z,10.88
2022-12-08T15:05:21.911Z,10.45
2022-12-08T15:08:24.059Z,9.95
2022-12-08T15:11:34.560Z,10.32
2022-12-08T15:14:40.460Z,9.55
2022-12-08T15:17:43.457Z,11.23
2022-12-08T15:21:01.886Z,10.27
2022-12-08T15:24:03.649Z,10.20
2022-12-08T15:27:05.241Z,9.10
2022-12-08T15:30:14.306Z,10.43
2022-12-08T15:33:15.956Z,10.25
2022-12-08T15:36:17.500Z,10.20
2022-12-08T15:39:35.587Z,12.13
2022-12-08T15:42:37.137Z,12.25
2022-12-08T15:45:44.760Z,10.75
2022-12-08T15:48:57.891Z,11.38
2022-12-08T15:52:10.774Z,17.90
2022-12-08T15:55:18.818Z,16.75
2022-12-08T16:01:45.324Z,15.30
2022-12-08T16:05:33.421Z,14.88
2022-12-08T16:08:44.659Z,11.65
2022-12-08T16:12:06.489Z,11.07
2022-12-08T16:18:37.007Z,11.27
2022-12-08T16:22:17.729Z,11.50
2022-12-08T16:25:14.701Z,11.33
2022-12-08T16:28:52.009Z,11.85
2022-12-08T16:31:41.225Z,11.65
2022-12-08T16:34:43.911Z,12.07
2022-12-08T16:37:45.574Z,11.93
2022-12-08T16:41:06.342Z,12.48
2022-12-08T16:44:07.917Z,12.07
2022-12-08T16:47:10.254Z,12.55
2022-12-08T16:50:32.356Z,15.52
2022-12-08T16:53:33.857Z,20.15
2022-12-08T16:56:35.782Z,22.60
2022-12-08T16:59:38.123Z,19.35
2022-12-08T17:02:39.912Z,20.15
2022-12-08T17:05:43.258Z,21.57
2022-12-08T17:08:45.216Z,19.65
2022-12-08T17:11:46.776Z,17.20
2022-12-08T17:14:48.327Z,15.18
2022-12-08T17:17:50.436Z,15.25
2022-12-08T17:20:52.001Z,15.95
2022-12-08T17:23:53.768Z,15.77
2022-12-08T17:26:57.555Z,15.00
2022-12-08T17:29:59.311Z,13.63
2022-12-08T17:33:01.312Z,14.55
2022-12-08T17:36:03.062Z,14.10
2022-12-08T17:39:06.149Z,13.13
2022-12-08T17:42:08.099Z,13.00
2022-12-08T17:45:10.255Z,12.95
2022-12-08T17:48:12.037Z,12.18
2022-12-08T17:51:13.650Z,12.07
2022-12-08T17:54:16.482Z,11.93
2022-12-08T17:57:18.017Z,12.00
2022-12-08T18:00:20.271Z,14.07
2022-12-08T18:03:21.948Z,13.18
2022-12-08T18:06:28.169Z,12.80
2022-12-08T18:09:33.685Z,13.57
2022-12-08T18:12:35.416Z,13.18
2022-12-08T18:15:39.333Z,13.60
2022-12-08T18:18:41.509Z,14.70
2022-12-08T18:21:43.195Z,15.25
2022-12-08T18:24:44.897Z,16.83
2022-12-08T18:27:46.690Z,21.57
2022-12-08T18:30:48.245Z,24.20
2022-12-08T18:33:51.183Z,20.08
2022-12-08T18:36:53.599Z,17.67
2022-12-08T18:39:55.199Z,15.20
2022-12-08T18:42:56.850Z,16.52
2022-12-08T18:46:10.131Z,15.85
2022-12-08T18:49:12.915Z,16.90
2022-12-08T18:52:14.496Z,14.45
2022-12-08T18:55:16.073Z,14.30
2022-12-08T18:58:18.598Z,14.33
2022-12-08T19:01:20.622Z,13.55
2022-12-08T19:04:29.886Z,13.07
2022-12-08T19:07:32.277Z,12.30
2022-12-08T19:10:38.181Z,11.57
2022-12-08T19:13:39.697Z,12.82
2022-12-08T19:16:41.287Z,12.60
2022-12-08T19:19:43.183Z,12.77
2022-12-08T19:22:44.823Z,14.13
2022-12-08T19:25:46.436Z,13.20
2022-12-08T19:28:48.100Z,13.53
2022-12-08T19:31:49.842Z,13.73
2022-12-08T19:35:07.811Z,13.73
2022-12-08T19:38:17.998Z,13.23
2022-12-08T19:45:17.218Z,12.00
2022-12-08T19:48:18.780Z,12.65
2022-12-08T19:51:20.405Z,12.07
2022-12-08T19:54:21.994Z,12.55
2022-12-08T19:57:23.541Z,11.98
2022-12-08T20:00:25.536Z,12.40
2022-12-08T20:03:27.114Z,12.13
2022-12-08T20:06:28.780Z,13.20
2022-12-08T20:09:30.333Z,12.50
2022-12-08T20:12:31.933Z,12.85
2022-12-08T20:15:33.560Z,12.73
2022-12-08T20:18:39.871Z,12.27
2022-12-08T20:21:41.632Z,12.65
2022-12-08T20:24:43.250Z,12.45
2022-12-08T20:27:44.824Z,12.70
2022-12-08T20:30:46.956Z,13.13
2022-12-08T20:33:48.914Z,13.38
2022-12-08T20:36:50.481Z,13.35
2022-12-08T20:39:52.645Z,12.40
2022-12-08T20:42:54.424Z,13.23
2022-12-08T20:45:56.303Z,13.48
2022-12-08T20:49:01.225Z,13.60
2022-12-08T20:52:39.592Z,11.98
2022-12-08T20:55:49.681Z,11.00
2022-12-08T21:05:51.110Z,12.50
2022-12-08T21:08:53.573Z,12.20
2022-12-08T21:11:55.553Z,13.20
2022-12-08T21:14:57.150Z,11.93
2022-12-08T21:17:59.141Z,11.68
2022-12-08T21:21:04.608Z,12.00
2022-12-08T21:24:06.909Z,11.40
2022-12-08T21:27:09.311Z,11.43
2022-12-08T21:30:11.821Z,11.70
2022-12-08T21:33:13.933Z,11.93
2022-12-08T21:36:18.746Z,11.90
2022-12-08T21:39:20.443Z,12.50
2022-12-08T21:42:40.632Z,11.80
2022-12-08T21:45:42.343Z,11.48
2022-12-08T21:48:44.000Z,11.85
2022-12-08T21:51:45.948Z,11.85
2022-12-08T21:54:47.693Z,11.32
2022-12-08T21:57:49.295Z,12.00
2022-12-08T22:00:51.005Z,12.25
2022-12-08T22:03:52.797Z,14.90
2022-12-08T22:06:54.502Z,14.55
2022-12-08T22:09:56.248Z,16.42
2022-12-08T22:12:57.875Z,15.50
2022-12-08T22:16:02.144Z,17.83
2022-12-08T22:19:03.852Z,17.60
2022-12-08T22:22:05.942Z,16.92
2022-12-08T22:25:11.875Z,15.20
2022-12-08T22:28:13.742Z,14.88
2022-12-08T22:31:19.499Z,13.32
2022-12-08T22:34:21.262Z,12.83
2022-12-08T22:37:22.893Z,12.38
2022-12-08T22:40:24.646Z,12.52
2022-12-08T22:43:26.532Z,13.00
2022-12-08T22:46:28.299Z,13.30
2022-12-08T22:49:31.677Z,13.77
2022-12-08T22:52:33.580Z,13.95
2022-12-08T22:55:35.339Z,12.80
2022-12-08T22:58:38.712Z,14.00
2022-12-08T23:01:40.294Z,14.23
2022-12-08T23:04:42.006Z,12.10
2022-12-08T23:07:44.009Z,13.18
2022-12-08T23:10:47.145Z,13.70
2022-12-08T23:13:49.032Z,13.37
2022-12-08T23:16:50.690Z,13.82
2022-12-08T23:19:52.337Z,13.13
2022-12-08T23:22:53.946Z,13.05
2022-12-08T23:25:55.627Z,13.80
2022-12-08T23:28:57.805Z,13.30
2022-12-08T23:32:00.030Z,13.15
2022-12-08T23:35:01.743Z,12.80
2022-12-08T23:38:03.768Z,13.30
2022-12-08T23:41:07.837Z,13.52
2022-12-08T23:44:11.920Z,12.57
2022-12-08T23:47:13.613Z,11.25
2022-12-08T23:50:15.427Z,10.88
2022-12-08T23:53:17.190Z,10.25
2022-12-08T23:56:19.894Z,10.57
2022-12-08T23:59:23.173Z,10.98
